Time;durP1;ratioP1;P1;durP2;ratioP2;P2;SDS_P1;SDS_P2;PMS_P1;PMS_P2;Temp;Humidity;BMP_temperature;BMP_pressure;BME280_temperature;BME280_humidity;BME280_pressure;Samples;Min_cycle;Max_cycle;Signal;HPM_P1;HPM_P2
2021/09/01 00:01:12;;;;;;;;;21.75;20.00;;;;;20.31;100.00;102389.63;5078791;28;45288;-66
2021/09/01 00:03:38;;;;;;;;;19.50;19.00;;;;;20.29;100.00;102401.19;5078480;28;45416;-68
2021/09/01 00:06:05;;;;;;;;;22.25;18.50;;;;;20.19;100.00;102387.31;5078788;28;45487;-68
2021/09/01 00:08:31;;;;;;;;;18.25;16.25;;;;;20.11;100.00;102381.34;5078324;28;45455;-67
2021/09/01 00:10:56;;;;;;;;;19.50;17.50;;;;;20.13;100.00;102395.44;5078280;28;45538;-66
2021/09/01 00:13:22;;;;;;;;;17.25;16.75;;;;;20.17;100.00;102405.94;5078335;28;45444;-66
2021/09/01 00:15:47;;;;;;;;;16.00;14.25;;;;;20.11;100.00;102399.91;5078314;28;45394;-66
2021/09/01 00:18:12;;;;;;;;;16.00;14.50;;;;;20.11;100.00;102405.22;5078476;28;45535;-68
2021/09/01 00:20:38;;;;;;;;;18.00;15.25;;;;;20.08;100.00;102400.84;5078309;28;45300;-67
2021/09/01 00:23:03;;;;;;;;;17.75;16.00;;;;;20.07;100.00;102409.72;5078223;28;45422;-65
2021/09/01 00:25:29;;;;;;;;;18.50;16.25;;;;;20.02;100.00;102406.34;5078486;28;45426;-65
2021/09/01 00:27:54;;;;;;;;;18.50;15.00;;;;;20.02;100.00;102403.69;5077873;28;45377;-65
2021/09/01 00:30:19;;;;;;;;;16.75;16.00;;;;;19.98;100.00;102403.81;5078116;28;46399;-66
2021/09/01 00:32:45;;;;;;;;;18.75;15.75;;;;;19.97;100.00;102402.94;5078041;28;45385;-65
2021/09/01 00:35:10;;;;;;;;;19.00;17.50;;;;;19.94;100.00;102402.16;5077784;28;45294;-67
2021/09/01 00:37:36;;;;;;;;;17.50;16.25;;;;;19.81;100.00;102398.94;5080905;27;45617;-65
2021/09/01 00:40:01;;;;;;;;;18.75;17.75;;;;;19.88;100.00;102404.03;5075176;28;45467;-65
2021/09/01 00:42:26;;;;;;;;;18.00;16.25;;;;;19.86;100.00;102411.16;5063833;28;45834;-65
2021/09/01 00:44:52;;;;;;;;;19.75;16.00;;;;;19.83;100.00;102405.94;5061228;28;45305;-65
2021/09/01 00:47:18;;;;;;;;;21.50;17.25;;;;;19.81;100.00;102413.06;5064726;28;45389;-65
2021/09/01 00:49:44;;;;;;;;;20.75;17.50;;;;;19.78;100.00;102410.50;5077373;28;45448;-66
2021/09/01 00:52:09;;;;;;;;;20.75;17.50;;;;;19.73;100.00;102415.06;5077971;28;45381;-66
2021/09/01 00:54:37;;;;;;;;;21.00;17.50;;;;;19.75;100.00;102418.53;5077961;28;45384;-66
2021/09/01 00:57:08;;;;;;;;;20.25;18.75;;;;;19.70;100.00;102412.50;5077948;28;45464;-66
2021/09/01 00:59:37;;;;;;;;;22.50;18.25;;;;;19.63;100.00;102404.72;5077190;28;46286;-66
2021/09/01 01:02:03;;;;;;;;;17.75;17.00;;;;;19.61;100.00;102407.41;5076496;28;45612;-66
2021/09/01 01:04:34;;;;;;;;;18.50;17.00;;;;;19.57;100.00;102401.31;5077683;28;45892;-67
2021/09/01 01:07:07;;;;;;;;;18.50;17.25;;;;;19.60;100.00;102407.44;5078196;28;45278;-66
2021/09/01 01:09:35;;;;;;;;;24.75;20.00;;;;;19.54;100.00;102400.53;5077530;28;46187;-66
2021/09/01 01:12:08;;;;;;;;;17.75;16.50;;;;;19.58;100.00;102415.44;5077264;28;45741;-66
2021/09/01 01:14:44;;;;;;;;;20.00;19.00;;;;;19.55;100.00;102418.16;5077652;28;45454;-66
2021/09/01 01:17:11;;;;;;;;;20.25;20.00;;;;;19.54;100.00;102419.94;5062815;28;45496;-66
2021/09/01 01:19:48;;;;;;;;;23.50;21.75;;;;;19.48;100.00;102413.91;5077346;28;46888;-66
2021/09/01 01:22:15;;;;;;;;;22.25;18.50;;;;;19.50;100.00;102414.75;5077055;28;45359;-66
2021/09/01 01:24:58;;;;;;;;;21.00;18.25;;;;;19.44;100.00;102412.22;5077623;28;45400;-66
2021/09/01 01:27:27;;;;;;;;;20.25;18.25;;;;;19.46;100.00;102415.69;5064570;28;45398;-66
2021/09/01 01:29:53;;;;;;;;;21.25;18.00;;;;;19.40;100.00;102406.13;5076840;28;46409;-66
2021/09/01 01:32:18;;;;;;;;;19.00;17.25;;;;;19.41;100.00;102407.00;5076424;28;45400;-67
2021/09/01 01:34:44;;;;;;;;;27.25;21.00;;;;;19.35;100.00;102396.56;5077505;28;45365;-66
2021/09/01 01:37:09;;;;;;;;;20.50;18.75;;;;;19.32;100.00;102388.69;5077349;28;45431;-67
2021/09/01 01:39:35;;;;;;;;;25.00;20.50;;;;;19.34;100.00;102406.28;5077135;28;46593;-67
2021/09/01 01:42:00;;;;;;;;;23.00;18.50;;;;;19.31;100.00;102406.38;5076948;28;45292;-67
2021/09/01 01:44:26;;;;;;;;;24.75;20.25;;;;;19.27;100.00;102404.69;5076468;28;45435;-66
2021/09/01 01:46:51;;;;;;;;;20.00;18.25;;;;;19.23;100.00;102403.00;5077374;28;45230;-65
2021/09/01 01:49:18;;;;;;;;;22.00;19.50;;;;;19.23;100.00;102403.88;5076717;28;46330;-66
2021/09/01 01:51:50;;;;;;;;;23.75;21.75;;;;;19.19;100.00;102401.34;5076818;28;45841;-66
2021/09/01 01:54:16;;;;;;;;;25.00;21.00;;;;;19.22;100.00;102409.22;5076179;28;45756;-66
2021/09/01 01:56:41;;;;;;;;;24.00;22.50;;;;;19.17;100.00;102406.69;5077264;28;45407;-67
2021/09/01 01:59:07;;;;;;;;;25.00;20.00;;;;;19.14;100.00;102404.09;5076396;28;45448;-67
2021/09/01 02:01:32;;;;;;;;;26.75;23.75;;;;;19.19;100.00;102412.81;5076969;28;45435;-66
2021/09/01 02:03:57;;;;;;;;;25.75;22.75;;;;;19.15;100.00;102404.97;5076550;28;45224;-67
2021/09/01 02:06:23;;;;;;;;;21.75;20.50;;;;;19.17;100.00;102401.38;5076655;28;45352;-66
2021/09/01 02:08:48;;;;;;;;;24.25;23.25;;;;;19.22;100.00;102412.72;5076792;28;46501;-66
2021/09/01 02:11:13;;;;;;;;;25.50;22.25;;;;;19.17;100.00;102404.03;5076000;28;45367;-66
2021/09/01 02:13:39;;;;;;;;;25.50;22.00;;;;;19.19;100.00;102411.94;5076957;28;45808;-67
2021/09/01 02:16:04;;;;;;;;;21.75;19.50;;;;;19.16;100.00;102412.88;5076155;28;45360;-66
2021/09/01 02:18:30;;;;;;;;;24.25;22.00;;;;;19.13;100.00;102406.78;5076624;28;46416;-67
2021/09/01 02:20:55;;;;;;;;;20.50;19.50;;;;;19.11;100.00;102413.91;5076553;28;45360;-66
2021/09/01 02:23:21;;;;;;;;;26.00;25.00;;;;;19.09;100.00;102410.41;5076512;28;45320;-67
2021/09/01 02:25:46;;;;;;;;;21.75;19.50;;;;;19.07;100.00;102415.75;5076380;28;45423;-67
2021/09/01 02:28:11;;;;;;;;;22.75;22.25;;;;;19.05;100.00;102414.91;5076267;28;46597;-66
2021/09/01 02:30:37;;;;;;;;;26.75;22.00;;;;;19.04;100.00;102421.13;5076204;28;45451;-66
2021/09/01 02:33:02;;;;;;;;;28.25;23.50;;;;;18.96;100.00;102410.69;5076303;28;45273;-67
2021/09/01 02:35:28;;;;;;;;;20.75;18.75;;;;;19.00;100.00;102426.50;5058224;28;45401;-66
2021/09/01 02:37:53;;;;;;;;;24.00;22.00;;;;;18.98;100.00;102413.28;5075739;28;46608;-66
2021/09/01 02:40:22;;;;;;;;;28.00;25.25;;;;;18.99;100.00;102417.69;5076291;28;45358;-66
2021/09/01 02:42:48;;;;;;;;;22.75;21.00;;;;;18.95;100.00;102416.00;5065810;28;45383;-67
2021/09/01 02:45:16;;;;;;;;;35.00;28.00;;;;;18.97;100.00;102424.78;5072931;28;45371;-66
2021/09/01 02:47:42;;;;;;;;;22.75;20.00;;;;;18.89;100.00;102408.22;5075433;28;45500;-66
2021/09/01 02:50:08;;;;;;;;;25.50;22.75;;;;;18.93;100.00;102426.63;5076188;28;45205;-66
2021/09/01 02:52:33;;;;;;;;;22.50;18.00;;;;;18.93;100.00;102418.69;5075675;28;45323;-67
2021/09/01 02:54:59;;;;;;;;;27.75;25.00;;;;;18.93;100.00;102417.81;5075252;28;45384;-66
2021/09/01 02:57:24;;;;;;;;;26.75;21.75;;;;;18.88;100.00;102406.47;5075342;28;45439;-67
2021/09/01 02:59:49;;;;;;;;;22.50;21.00;;;;;19.00;100.00;102426.50;5076098;28;45378;-66
2021/09/01 03:02:15;;;;;;;;;22.25;18.25;;;;;19.01;100.00;102422.94;5076107;28;45423;-67
2021/09/01 03:04:40;;;;;;;;;24.25;21.75;;;;;19.00;100.00;102426.50;5071673;28;45242;-66
2021/09/01 03:07:06;;;;;;;;;24.50;22.75;;;;;19.01;100.00;102423.84;5055754;28;46629;-67
2021/09/01 03:09:31;;;;;;;;;23.75;23.00;;;;;19.02;100.00;102425.59;5072142;28;45448;-66
2021/09/01 03:11:56;;;;;;;;;25.00;21.00;;;;;19.02;100.00;102430.88;5076102;28;45312;-67
2021/09/01 03:14:22;;;;;;;;;23.75;21.25;;;;;19.04;100.00;102429.06;5076150;28;45428;-66
2021/09/01 03:16:47;;;;;;;;;23.00;20.75;;;;;19.05;100.00;102429.94;5075495;28;45512;-66
2021/09/01 03:19:13;;;;;;;;;26.25;23.00;;;;;19.03;100.00;102432.63;5075433;28;45471;-66
2021/09/01 03:21:38;;;;;;;;;18.50;17.75;;;;;19.07;100.00;102423.69;5075855;28;45354;-66
2021/09/01 03:24:04;;;;;;;;;24.00;19.50;;;;;19.06;100.00;102421.97;5077857;28;45257;-66
2021/09/01 03:26:32;;;;;;;;;22.75;20.25;;;;;19.11;100.00;102424.50;5079000;28;45946;-66
2021/09/01 03:28:57;;;;;;;;;25.75;22.50;;;;;19.08;100.00;102419.28;5079370;28;45650;-66
2021/09/01 03:31:23;;;;;;;;;23.00;17.25;;;;;19.13;100.00;102420.03;5060737;28;45419;-66
2021/09/01 03:33:48;;;;;;;;;24.00;21.75;;;;;19.13;100.00;102425.31;5079182;28;45415;-66
2021/09/01 03:36:14;;;;;;;;;27.50;20.75;;;;;19.13;100.00;102422.69;5079196;28;46178;-66
2021/09/01 03:38:39;;;;;;;;;23.50;21.50;;;;;19.10;100.00;102413.03;5078902;28;45445;-67
2021/09/01 03:41:04;;;;;;;;;25.00;22.00;;;;;19.16;100.00;102426.13;5078759;28;45323;-66
2021/09/01 03:43:30;;;;;;;;;23.25;19.75;;;;;19.12;100.00;102416.50;5079397;28;45534;-67
2021/09/01 03:45:55;;;;;;;;;23.00;18.25;;;;;19.07;100.00;102407.81;5060453;28;45557;-67
2021/09/01 03:48:22;;;;;;;;;24.25;20.75;;;;;19.08;100.00;102419.28;5078661;28;45363;-68
2021/09/01 03:50:47;;;;;;;;;27.75;23.50;;;;;19.10;100.00;102423.63;5078618;28;45458;-67
2021/09/01 03:53:13;;;;;;;;;23.00;21.50;;;;;19.08;100.00;102436.03;5060789;28;45451;-67
2021/09/01 03:55:39;;;;;;;;;29.50;19.50;;;;;19.04;100.00;102434.34;5078512;28;45722;-67
2021/09/01 03:58:04;;;;;;;;;23.25;21.25;;;;;18.99;100.00;102422.97;5078849;28;45331;-66
2021/09/01 04:00:29;;;;;;;;;25.75;21.25;;;;;19.04;100.00;102437.00;5078946;28;45396;-67
2021/09/01 04:02:55;;;;;;;;;27.50;22.25;;;;;18.97;100.00;102422.13;5078245;28;45668;-67
2021/09/01 04:05:20;;;;;;;;;25.75;22.25;;;;;19.05;100.00;102443.16;5078519;28;45444;-67
2021/09/01 04:07:46;;;;;;;;;25.75;21.25;;;;;19.01;100.00;102430.88;5064333;28;45454;-67
2021/09/01 04:10:11;;;;;;;;;26.00;20.50;;;;;19.01;100.00;102425.59;5078836;28;45254;-66
2021/09/01 04:12:36;;;;;;;;;22.00;17.50;;;;;19.00;100.00;102426.50;5078502;28;45448;-67
2021/09/01 04:15:03;;;;;;;;;21.00;17.25;;;;;19.02;100.00;102436.16;5078177;28;47722;-67
2021/09/01 04:17:30;;;;;;;;;29.00;25.25;;;;;19.03;100.00;102426.44;5078566;28;45454;-67
2021/09/01 04:19:56;;;;;;;;;26.75;24.75;;;;;18.96;100.00;102421.28;5060798;28;45401;-67
2021/09/01 04:22:21;;;;;;;;;23.50;22.00;;;;;19.06;100.00;102439.63;5078852;28;45328;-67
2021/09/01 04:24:46;;;;;;;;;35.50;31.50;;;;;19.01;100.00;102425.59;5077544;28;46960;-67
2021/09/01 04:27:12;;;;;;;;;29.50;25.50;;;;;19.01;100.00;102426.50;5060525;28;45349;-67
2021/09/01 04:29:37;;;;;;;;;27.75;26.50;;;;;19.00;100.00;102426.50;5078467;28;45442;-67
2021/09/01 04:32:03;;;;;;;;;32.50;27.50;;;;;18.98;100.00;102424.75;5077922;28;45458;-67
2021/09/01 04:34:28;;;;;;;;;28.75;21.75;;;;;19.03;100.00;102429.97;5077294;28;45962;-68
2021/09/01 04:36:54;;;;;;;;;24.25;22.00;;;;;18.98;100.00;102427.41;5059646;28;45484;-67
2021/09/01 04:39:19;;;;;;;;;31.50;25.75;;;;;18.91;100.00;102412.56;5083871;27;45849;-67
2021/09/01 04:41:44;;;;;;;;;29.00;24.75;;;;;18.89;100.00;102417.03;5073552;28;45397;-70
2021/09/01 04:44:10;;;;;;;;;26.50;24.50;;;;;18.89;100.00;102424.09;5078175;28;45575;-66
2021/09/01 04:46:35;;;;;;;;;23.75;21.25;;;;;18.90;100.00;102432.00;5059694;28;45428;-68
2021/09/01 04:49:00;;;;;;;;;29.00;23.50;;;;;18.91;100.00;102444.34;5076231;28;45301;-67
2021/09/01 04:51:26;;;;;;;;;30.75;25.00;;;;;18.94;100.00;102453.97;5065573;28;45600;-67
2021/09/01 04:53:51;;;;;;;;;30.75;25.00;;;;;18.88;100.00;102451.47;5077211;28;46378;-67
2021/09/01 04:56:17;;;;;;;;;31.00;25.00;;;;;18.91;100.00;102454.06;5077553;28;45212;-67
2021/09/01 04:58:42;;;;;;;;;31.25;27.00;;;;;18.89;100.00;102453.22;5078068;28;45624;-67
2021/09/01 05:01:07;;;;;;;;;28.50;24.75;;;;;18.85;100.00;102449.75;5077009;28;45289;-64
2021/09/01 05:03:33;;;;;;;;;25.75;24.25;;;;;18.87;100.00;102447.94;5077699;28;46570;-70
2021/09/01 05:05:58;;;;;;;;;31.25;24.25;;;;;18.86;100.00;102448.00;5059243;28;45458;-70
2021/09/01 05:08:24;;;;;;;;;29.25;25.00;;;;;18.81;100.00;102448.09;5077926;28;45277;-69
2021/09/01 05:10:49;;;;;;;;;26.75;21.25;;;;;18.66;100.00;102414.88;5077448;28;45329;-71
2021/09/01 05:13:14;;;;;;;;;27.25;25.75;;;;;18.84;100.00;102448.03;5077129;28;45472;-70
2021/09/01 05:15:40;;;;;;;;;31.75;24.00;;;;;18.88;100.00;102456.75;5077624;28;45352;-71
2021/09/01 05:18:05;;;;;;;;;25.75;24.00;;;;;18.85;100.00;102448.91;5077131;28;45377;-69
2021/09/01 05:20:39;;;;;;;;;25.25;23.00;;;;;18.89;100.00;102461.16;5077513;28;45421;-70
2021/09/01 05:23:07;;;;;;;;;28.50;26.75;;;;;18.89;100.00;102455.84;5077236;28;45592;-70
2021/09/01 05:25:48;;;;;;;;;29.25;27.00;;;;;18.87;100.00;102447.09;5076724;28;45795;-71
2021/09/01 05:28:16;;;;;;;;;34.00;25.50;;;;;18.84;100.00;102452.44;5077102;28;45460;-69
2021/09/01 05:30:46;;;;;;;;;25.50;23.00;;;;;18.83;100.00;102448.94;5077570;28;45373;-67
2021/09/01 05:33:12;;;;;;;;;30.75;26.25;;;;;18.85;100.00;102456.84;5077130;28;45458;-69
2021/09/01 05:35:38;;;;;;;;;33.00;27.75;;;;;18.87;100.00;102469.13;5076970;28;45183;-69
2021/09/01 05:38:04;;;;;;;;;25.00;23.00;;;;;18.86;100.00;102466.50;5077128;28;45415;-69
2021/09/01 05:40:30;;;;;;;;;34.50;29.75;;;;;18.81;100.00;102450.75;5077434;28;45455;-69
2021/09/01 05:42:58;;;;;;;;;31.50;27.00;;;;;18.84;100.00;102463.03;5077137;28;45520;-68
2021/09/01 05:45:24;;;;;;;;;30.50;27.25;;;;;18.82;100.00;102456.91;5076335;28;45439;-69
2021/09/01 05:47:50;;;;;;;;;26.75;25.00;;;;;18.86;100.00;102470.03;5076725;28;45443;-69
2021/09/01 05:50:15;;;;;;;;;29.75;27.25;;;;;18.84;100.00;102470.97;5058789;28;45445;-69
2021/09/01 05:52:41;;;;;;;;;31.00;25.00;;;;;18.80;100.00;102466.66;5076669;28;46396;-68
2021/09/01 05:55:10;;;;;;;;;31.50;26.50;;;;;18.86;100.00;102477.09;5077057;28;45426;-69
2021/09/01 05:57:38;;;;;;;;;30.50;27.50;;;;;18.88;100.00;102481.47;5076858;28;45557;-69
2021/09/01 06:00:14;;;;;;;;;25.75;23.50;;;;;18.83;100.00;102471.88;5076917;28;45340;-69
2021/09/01 06:02:52;;;;;;;;;24.25;21.75;;;;;18.90;100.00;102478.78;5076672;28;46634;-68
2021/09/01 06:05:20;;;;;;;;;28.00;25.50;;;;;18.92;100.00;102476.97;5076530;28;45398;-68
2021/09/01 06:07:53;;;;;;;;;29.25;23.75;;;;;18.93;100.00;102474.28;5076762;28;45533;-69
2021/09/01 06:10:22;;;;;;;;;31.50;24.50;;;;;18.92;100.00;102471.66;5075789;28;45484;-68
2021/09/01 06:12:52;;;;;;;;;33.50;27.75;;;;;18.92;100.00;102469.91;5074990;28;46679;-67
2021/09/01 06:15:18;;;;;;;;;26.50;25.00;;;;;18.93;100.00;102458.41;5058072;28;45639;-67
2021/09/01 06:17:43;;;;;;;;;25.50;23.75;;;;;19.04;100.00;102476.72;5074724;28;45470;-69
2021/09/01 06:20:10;;;;;;;;;29.75;26.00;;;;;19.09;100.00;102461.59;5067311;28;45492;-68
2021/09/01 06:22:35;;;;;;;;;34.50;27.25;;;;;19.06;100.00;102444.91;5071500;28;47291;-68
2021/09/01 06:25:01;;;;;;;;;30.50;27.00;;;;;19.15;100.00;102464.09;5075932;28;45401;-68
2021/09/01 06:27:26;;;;;;;;;22.00;19.25;;;;;19.18;100.00;102457.84;5076228;28;45644;-70
2021/09/01 06:29:52;;;;;;;;;29.50;25.50;;;;;19.23;100.00;102462.13;5087395;27;45364;-77
2021/09/01 06:32:17;;;;;;;;;21.75;20.25;;;;;19.32;100.00;102465.50;5068020;28;46450;-76
2021/09/01 06:34:42;;;;;;;;;29.50;26.00;;;;;19.20;100.00;102435.72;5063862;28;45398;-77
2021/09/01 06:37:08;;;;;;;;;31.50;27.50;;;;;19.41;100.00;102459.97;5057429;28;45357;-65
2021/09/01 06:39:33;;;;;;;;;35.75;29.25;;;;;19.46;100.00;102453.69;5056405;28;45444;-78
2021/09/01 06:41:58;;;;;;;;;29.50;26.00;;;;;19.47;100.00;102451.91;5055782;28;45424;-77
2021/09/01 06:44:24;;;;;;;;;35.00;29.00;;;;;19.55;100.00;102452.63;5055973;28;45907;-77
2021/09/01 06:46:49;;;;;;;;;27.50;26.25;;;;;19.61;100.00;102452.47;5056085;28;45457;-76
2021/09/01 06:49:14;;;;;;;;;28.00;24.75;;;;;19.69;100.00;102452.25;5056636;28;45306;-77
2021/09/01 06:51:40;;;;;;;;;30.50;27.75;;;;;19.67;100.00;102446.13;5056343;28;45399;-76
2021/09/01 06:54:06;;;;;;;;;29.25;25.25;;;;;19.75;100.00;102457.44;5056056;28;45435;-77
2021/09/01 06:56:31;;;;;;;;;32.50;29.00;;;;;19.79;100.00;102465.25;5055840;28;45319;-78
2021/09/01 06:58:57;;;;;;;;;32.75;27.75;;;;;19.82;100.00;102459.88;5059374;28;45322;-79
2021/09/01 07:01:22;;;;;;;;;27.25;23.75;;;;;19.83;100.00;102460.75;5059411;28;45574;-80
2021/09/01 07:03:50;;;;;;;;;28.25;22.25;;;;;19.86;100.00;102463.31;5059193;28;45337;-81
2021/09/01 07:06:16;;;;;;;;;32.00;25.50;;;;;19.88;100.00;102453.53;5059425;28;45484;-76
2021/09/01 07:08:41;;;;;;;;;25.00;23.25;;;;;20.00;100.00;102461.19;5059663;28;45760;-79
2021/09/01 07:11:06;;;;;;;;;27.75;24.25;;;;;20.02;100.00;102443.47;5041051;28;48347;-81
2021/09/01 07:13:32;;;;;;;;;28.25;23.25;;;;;20.19;100.00;102454.50;5059054;28;45722;-79
2021/09/01 07:15:57;;;;;;;;;25.75;22.50;;;;;20.28;100.00;102447.19;5041326;28;46084;-81
2021/09/01 07:18:22;;;;;;;;;33.25;25.25;;;;;20.30;100.00;102442.72;5058981;28;45435;-79
2021/09/01 07:20:48;;;;;;;;;27.00;25.25;;;;;20.37;100.00;102445.16;5059067;28;46240;-78
2021/09/01 07:23:16;;;;;;;;;32.50;27.25;;;;;20.42;100.00;102448.59;5040927;28;45410;-77
2021/09/01 07:25:42;;;;;;;;;27.75;25.25;;;;;20.50;100.00;102453.69;5059120;28;45646;-79
2021/09/01 07:28:07;;;;;;;;;24.50;22.75;;;;;20.48;100.00;102437.81;5059242;28;45324;-79
2021/09/01 07:30:32;;;;;;;;;25.00;22.25;;;;;20.57;100.00;102446.41;5057840;28;45604;-67
2021/09/01 07:32:58;;;;;;;;;29.00;23.75;;;;;20.60;100.00;102449.88;5058804;28;45372;-69
2021/09/01 07:35:24;;;;;;;;;27.25;23.75;;;;;20.64;100.00;102445.34;5055861;28;45574;-68
2021/09/01 07:37:51;;;;;;;;;27.00;25.00;;;;;20.68;100.00;102447.84;5060526;27;45365;-69
2021/09/01 07:40:18;;;;;;;;;24.25;23.50;;;;;20.71;100.00;102436.25;5078501;28;45463;-70
2021/09/01 07:42:44;;;;;;;;;31.00;23.00;;;;;20.80;100.00;102439.50;5073784;28;45568;-70
2021/09/01 07:45:15;;;;;;;;;23.50;21.00;;;;;20.80;100.00;102433.31;5078056;28;45341;-69
2021/09/01 07:47:51;;;;;;;;;28.50;24.75;;;;;20.92;100.00;102443.59;5078570;28;45476;-70
2021/09/01 07:50:19;;;;;;;;;22.75;22.25;;;;;20.88;100.00;102443.75;5078086;28;45411;-70
2021/09/01 07:52:45;;;;;;;;;24.00;21.75;;;;;20.85;100.00;102446.50;5078642;28;45548;-70
2021/09/01 07:55:11;;;;;;;;;22.25;20.75;;;;;20.82;100.00;102444.78;5055936;28;45374;-70
2021/09/01 07:57:37;;;;;;;;;24.25;21.00;;;;;20.77;100.00;102436.06;5078544;28;45861;-70
2021/09/01 08:00:05;;;;;;;;;28.00;24.50;;;;;20.88;100.00;102449.91;5078334;28;46238;-70
2021/09/01 08:02:30;;;;;;;;;21.75;19.00;;;;;20.90;100.00;102445.44;5078162;28;45334;-70
2021/09/01 08:04:55;;;;;;;;;24.25;20.50;;;;;20.98;100.00;102443.41;5078006;28;45475;-70
2021/09/01 08:07:21;;;;;;;;;25.75;20.00;;;;;21.08;100.00;102450.19;5078954;28;45683;-70
2021/09/01 08:09:47;;;;;;;;;28.00;22.25;;;;;21.16;100.00;102446.41;5076116;28;45489;-70
2021/09/01 08:12:12;;;;;;;;;21.50;18.75;;;;;21.26;100.00;102447.88;5078354;28;45463;-70
2021/09/01 08:14:37;;;;;;;;;29.00;23.25;;;;;21.19;100.00;102431.25;5077746;28;45460;-70
2021/09/01 08:17:03;;;;;;;;;23.25;21.25;;;;;21.39;100.00;102450.13;5078591;28;45396;-70
2021/09/01 08:19:28;;;;;;;;;22.00;19.00;;;;;21.47;100.00;102449.84;5077612;28;46291;-70
2021/09/01 08:21:54;;;;;;;;;20.00;18.00;;;;;21.59;100.00;102452.13;5078049;28;45652;-70
2021/09/01 08:24:19;;;;;;;;;25.00;21.75;;;;;21.58;100.00;102429.13;5078135;28;45392;-71
2021/09/01 08:26:44;;;;;;;;;26.25;20.25;;;;;21.81;100.00;102440.78;5078302;28;45457;-70
2021/09/01 08:29:10;;;;;;;;;22.50;19.00;;;;;21.98;100.00;102438.41;5077599;28;45492;-70
2021/09/01 08:31:35;;;;;;;;;20.75;20.00;;;;;22.18;100.00;102429.75;5077249;28;45737;-70
2021/09/01 08:34:00;;;;;;;;;19.75;17.50;;;;;22.40;100.00;102429.81;5059448;28;45488;-70
2021/09/01 08:36:26;;;;;;;;;18.00;17.75;;;;;22.66;100.00;102428.88;5077764;28;45320;-69
2021/09/01 08:38:51;;;;;;;;;25.00;19.75;;;;;22.88;100.00;102436.03;5077741;28;46065;-69
2021/09/01 08:41:18;;;;;;;;;22.00;17.25;;;;;23.03;100.00;102431.88;5077410;28;45346;-69
2021/09/01 08:43:46;;;;;;;;;21.75;19.25;;;;;23.23;100.00;102429.28;5077882;28;45361;-69
2021/09/01 08:46:12;;;;;;;;;19.75;18.00;;;;;23.47;100.00;102443.41;5078079;28;45587;-70
2021/09/01 08:48:39;;;;;;;;;21.50;18.25;;;;;23.60;100.00;102429.63;5077372;28;45438;-69
2021/09/01 08:51:05;;;;;;;;;19.25;17.75;;;;;23.78;100.00;102431.53;5077110;28;45621;-70
2021/09/01 08:53:30;;;;;;;;;21.50;17.50;;;;;23.99;100.00;102443.94;5078216;28;45436;-70
2021/09/01 08:55:56;;;;;;;;;21.75;18.75;;;;;24.14;100.00;102445.91;5077579;28;45384;-70
2021/09/01 08:58:22;;;;;;;;;18.00;17.00;;;;;24.28;100.00;102444.47;5077903;28;45341;-69
2021/09/01 09:00:47;;;;;;;;;19.75;17.25;;;;;24.31;100.00;102433.66;5076366;28;45540;-70
2021/09/01 09:03:13;;;;;;;;;19.00;18.25;;;;;24.41;100.00;102443.84;5077904;28;45549;-70
2021/09/01 09:05:41;;;;;;;;;18.50;16.50;;;;;24.52;100.00;102448.72;5077754;28;45469;-69
2021/09/01 09:08:09;;;;;;;;;19.50;17.25;;;;;24.56;100.00;102446.78;5077043;28;46512;-76
2021/09/01 09:10:40;;;;;;;;;21.25;17.75;;;;;24.70;100.00;102445.22;5075763;28;45323;-76
2021/09/01 09:13:12;;;;;;;;;19.25;18.00;;;;;24.76;100.00;102432.50;5073692;28;45544;-78
2021/09/01 09:15:39;;;;;;;;;22.50;19.50;;;;;24.90;100.00;102438.94;5070841;28;45413;-76
2021/09/01 09:18:25;;;;;;;;;21.25;16.50;;;;;25.08;100.00;102437.22;5077180;28;45878;-75
2021/09/01 09:21:21;;;;;;;;;18.25;15.75;;;;;25.14;100.00;102436.94;5076635;28;45539;-77
2021/09/01 09:23:49;;;;;;;;;22.75;19.50;;;;;25.18;100.00;102433.16;5059433;28;45423;-78
2021/09/01 09:26:32;;;;;;;;;21.00;17.75;;;;;25.36;100.00;102443.91;5076549;28;45728;-78
2021/09/01 09:29:18;;;;;;;;;22.25;19.00;;;;;25.59;100.00;102441.81;5072432;28;45842;-80
2021/09/01 09:31:59;;;;;;;;;21.25;18.00;;;;;25.77;100.00;102445.38;5061133;28;45637;-80
2021/09/01 09:34:38;;;;;;;;;22.75;17.75;;;;;25.82;100.00;102434.47;5063324;28;45509;-79
2021/09/01 09:37:08;;;;;;;;;19.50;18.00;;;;;25.81;100.00;102436.28;5058408;28;46564;-78
2021/09/01 09:39:45;;;;;;;;;23.75;21.50;;;;;25.82;100.00;102438.00;5072110;28;46235;-78
2021/09/01 09:42:12;;;;;;;;;22.00;19.25;;;;;25.79;100.00;102434.59;5076430;28;45728;-79
2021/09/01 09:44:37;;;;;;;;;22.00;20.75;;;;;25.81;100.00;102422.91;5058188;28;45488;-79
2021/09/01 09:47:03;;;;;;;;;18.00;16.75;;;;;26.06;100.00;102433.19;5076147;28;45420;-79
2021/09/01 09:49:31;;;;;;;;;18.50;17.50;;;;;26.17;100.00;102424.59;5058465;28;47165;-83
2021/09/01 09:51:57;;;;;;;;;20.00;18.25;;;;;26.51;100.00;102421.00;5063315;28;45557;-79
2021/09/01 09:54:25;;;;;;;;;17.50;15.00;;;;;26.71;100.00;102401.16;5076976;28;45182;-78
2021/09/01 09:57:04;;;;;;;;;18.25;17.00;;;;;26.97;100.00;102419.31;5076204;28;45361;-78
2021/09/01 09:59:33;;;;;;;;;17.25;15.50;;;;;27.09;100.00;102410.59;5058239;28;47391;-79
2021/09/01 10:01:58;;;;;;;;;21.25;20.00;;;;;27.42;100.00;102420.34;5073666;28;45714;-79
2021/09/01 10:04:26;;;;;;;;;22.75;20.25;;;;;27.51;100.00;102410.88;5057838;28;45457;-80
2021/09/01 10:06:52;;;;;;;;;16.75;16.00;;;;;27.91;100.00;102425.50;5058546;28;45486;-80
2021/09/01 10:09:17;;;;;;;;;20.75;17.25;;;;;28.60;100.00;102424.81;5075746;28;46399;-77
2021/09/01 10:11:46;;;;;;;;;18.00;17.00;;;;;29.26;98.59;102413.38;5058303;28;45452;-79
2021/09/01 10:14:17;;;;;;;;;16.75;15.50;;;;;29.93;95.66;102422.28;5051411;28;45464;-79
2021/09/01 10:16:55;;;;;;;;;15.50;14.75;;;;;31.14;92.69;102416.31;5076528;28;45515;-80
2021/09/01 10:19:26;;;;;;;;;20.75;17.00;;;;;31.21;88.71;102428.38;5074301;28;48096;-80
2021/09/01 10:21:56;;;;;;;;;17.00;16.25;;;;;30.99;87.51;102413.75;5074149;28;45567;-81
2021/09/01 10:24:34;;;;;;;;;17.50;16.00;;;;;31.59;86.13;102418.25;5076575;28;45345;-80
2021/09/01 10:27:03;;;;;;;;;18.50;17.75;;;;;31.63;85.15;102425.13;5039286;28;45346;-80
2021/09/01 10:29:55;;;;;;;;;18.00;16.25;;;;;31.37;84.92;102416.31;5074664;28;47245;-80
2021/09/01 10:32:25;;;;;;;;;17.00;17.00;;;;;31.14;85.35;102405.50;5063287;28;45622;-80
2021/09/01 10:35:10;;;;;;;;;17.00;16.75;;;;;31.86;84.45;102412.59;5057355;28;45401;-80
2021/09/01 10:37:38;;;;;;;;;18.00;16.00;;;;;32.55;84.02;102391.75;5076469;28;45312;-80
2021/09/01 10:40:08;;;;;;;;;18.00;15.25;;;;;34.31;80.94;102406.66;5090652;27;48476;-78
2021/09/01 10:42:44;;;;;;;;;18.00;16.75;;;;;35.68;76.72;102398.66;5067816;28;45546;-78
2021/09/01 10:45:24;;;;;;;;;13.75;12.75;;;;;36.09;71.97;102395.56;5064034;28;45468;-78
2021/09/01 10:47:49;;;;;;;;;14.50;14.50;;;;;35.87;70.88;102394.06;5056352;28;45368;-79
2021/09/01 10:50:16;;;;;;;;;15.75;15.25;;;;;36.67;70.65;102392.59;5071222;28;45505;-78
2021/09/01 10:53:10;;;;;;;;;14.25;13.50;;;;;36.98;67.81;102392.28;5053200;28;45702;-79
2021/09/01 10:55:53;;;;;;;;;16.50;15.50;;;;;37.10;66.76;102394.59;5072552;28;45397;-79
2021/09/01 10:58:24;;;;;;;;;15.00;13.25;;;;;37.72;65.89;102380.19;5064736;28;45409;-78
2021/09/01 11:00:57;;;;;;;;;12.75;12.25;;;;;38.73;63.94;102373.06;5056881;28;47370;-78
2021/09/01 11:03:26;;;;;;;;;14.50;13.25;;;;;39.87;61.27;102382.16;5074492;28;45532;-77